If you wish to contribute or participate in the discussions about articles you are invited to join SKYbrary as a registered user

 Actions

Ilam Airport

From SKYbrary Wiki

OICI
Airport
ICAO: OICI – IATA: IIL
Summary
Name Ilam Airport
Region Middle East
Territory Iran IR.gif
Location Ilam, Ilam Province
Serving Ilam
Elevation 1,342.339 m
4,404 ft1,342.339 m
Coordinates 33° 35' 11.48" N, 46° 23' 57.81" E
Runways
Designator Length Width Surface ROPS
14/32 2799 m9,183.071 ft
45 m147.638 ft
ASP /


METAR
Observation OICI 210000Z 06004KT CAVOK 03/01 Q1015 A2999
Station Ilam
Date/Time 21 April 2019 00:00:00
Wind direction 60°
Wind speed 04 kts
Lowest cloud amount clouds and visibility OK
Temperature 3°C
Dew point 1°C
Humidity 86%
QNH 1015 hPa
Weather condition n/a

Domestic airport 6km3.24 nm
6,000 m
19,685.039 ft
south of the centre of Ilam, Iran.

Climatology

Warm Desert climate (Köppen climate classification BWh).

Maps

Terrain

Loading map...

Airport Layout

Loading map...


Accidents & Serious Incidents at or in vicinity of OICI

None on SKYbrary